Time;durP1;ratioP1;P1;durP2;ratioP2;P2;SDS_P1;SDS_P2;PMS_P1;PMS_P2;Temp;Humidity;BMP_temperature;BMP_pressure;BME280_temperature;BME280_humidity;BME280_pressure;Samples;Min_cycle;Max_cycle;Signal;HPM_P1;HPM_P2
2023/08/28 00:03:44;;;;;;;2.08;1.30;;;;;;;16.34;100.00;152796.50;10566673;28;20508;-76
2023/08/28 00:08:46;;;;;;;2.67;1.50;;;;;;;16.12;100.00;152740.75;10582944;28;20097;-75
2023/08/28 00:13:48;;;;;;;2.17;1.60;;;;;;;16.18;100.00;152756.28;10583062;28;20131;-75
2023/08/28 00:18:49;;;;;;;2.30;1.33;;;;;;;16.18;100.00;152755.00;10583270;28;20036;-75
2023/08/28 00:23:51;;;;;;;2.25;1.90;;;;;;;16.42;100.00;152815.91;10583043;28;20085;-75
2023/08/28 00:28:53;;;;;;;2.97;1.65;;;;;;;16.25;100.00;152773.16;10582610;28;20520;-75
2023/08/28 00:33:55;;;;;;;2.67;1.40;;;;;;;16.44;100.00;152821.13;10564532;28;20044;-76
2023/08/28 00:38:57;;;;;;;1.85;1.20;;;;;;;16.32;100.00;152792.56;10563739;28;20044;-76
2023/08/28 00:44:00;;;;;;;2.42;1.25;;;;;;;16.19;100.00;152758.88;10564241;28;20050;-75
2023/08/28 00:49:03;;;;;;;1.33;1.25;;;;;;;16.02;100.00;152716.06;10565174;28;20134;-75
2023/08/28 00:54:07;;;;;;;2.25;1.45;;;;;;;16.13;100.00;152744.63;10590305;28;20493;-75
2023/08/28 00:59:09;;;;;;;1.73;1.25;;;;;;;15.94;100.00;152695.38;10571638;28;20046;-76
2023/08/28 01:04:11;;;;;;;2.90;1.30;;;;;;;15.76;100.00;152650.00;10572066;28;20047;-75
2023/08/28 01:09:31;;;;;;;1.48;1.38;;;;;;;15.62;100.00;152613.63;10572636;28;20071;-75
2023/08/28 01:14:51;;;;;;;2.22;1.48;;;;;;;15.57;100.00;152601.97;10591213;28;20118;-75
2023/08/28 01:19:55;;;;;;;1.38;1.27;;;;;;;15.57;100.00;152601.97;10571817;28;20116;-76
2023/08/28 01:25:05;;;;;;;2.28;1.50;;;;;;;15.81;100.00;152661.69;10571524;28;20534;-73
2023/08/28 01:30:11;;;;;;;1.67;1.50;;;;;;;15.70;100.00;152634.44;10571184;28;20440;-73
2023/08/28 01:35:24;;;;;;;1.77;1.65;;;;;;;15.67;100.00;152625.34;10570374;28;20040;-73
2023/08/28 01:40:36;;;;;;;2.08;1.40;;;;;;;15.47;100.00;152574.78;10588478;28;20070;-73
2023/08/28 01:45:39;;;;;;;1.77;1.67;;;;;;;15.45;100.00;152569.56;10589437;28;20115;-73
2023/08/28 01:50:41;;;;;;;2.83;1.50;;;;;;;15.45;100.00;152569.56;10569625;28;20512;-73
2023/08/28 01:55:45;;;;;;;1.50;1.40;;;;;;;15.47;100.00;152574.78;10569407;28;20383;-73
2023/08/28 02:00:49;;;;;;;1.92;1.73;;;;;;;15.35;100.00;152544.97;10567791;28;20074;-73
2023/08/28 02:05:50;;;;;;;2.58;2.00;;;;;;;15.22;100.00;152511.28;10569072;28;20047;-73
2023/08/28 02:10:52;;;;;;;2.35;2.15;;;;;;;15.24;100.00;152516.50;10551993;28;20036;-74
2023/08/28 02:15:56;;;;;;;2.38;2.05;;;;;;;15.39;100.00;152555.34;10570613;28;20516;-73
2023/08/28 02:20:58;;;;;;;3.33;1.70;;;;;;;15.53;100.00;152590.31;10586992;28;20431;-73
2023/08/28 02:26:00;;;;;;;2.15;1.58;;;;;;;15.17;100.00;152499.63;10568218;28;20047;-73
2023/08/28 02:31:03;;;;;;;3.67;1.60;;;;;;;15.42;100.00;152563.13;10568198;28;20066;-73
2023/08/28 02:36:06;;;;;;;1.88;1.77;;;;;;;15.04;100.00;152467.22;10568784;28;20097;-73
2023/08/28 02:41:08;;;;;;;1.88;1.75;;;;;;;15.23;100.00;152513.84;10567016;28;20048;-73
2023/08/28 02:46:10;;;;;;;2.70;1.60;;;;;;;15.34;100.00;152542.38;10567084;28;20071;-73
2023/08/28 02:51:12;;;;;;;3.05;2.03;;;;;;;15.10;100.00;152482.81;10586371;28;20055;-73
2023/08/28 02:56:24;;;;;;;2.13;1.90;;;;;;;15.18;100.00;152500.91;10567400;28;20043;-72
2023/08/28 03:01:26;;;;;;;2.10;1.90;;;;;;;15.07;100.00;152473.72;10568239;28;20408;-73
2023/08/28 03:06:28;;;;;;;3.00;2.33;;;;;;;14.99;100.00;152454.28;10586988;28;20043;-73
2023/08/28 03:11:30;;;;;;;2.15;1.92;;;;;;;14.92;100.00;152436.19;10586557;28;20510;-73
2023/08/28 03:16:31;;;;;;;1.80;1.70;;;;;;;14.90;100.00;152430.97;10550620;28;20126;-73
2023/08/28 03:21:34;;;;;;;3.10;1.83;;;;;;;15.21;100.00;152508.69;10566666;28;20515;-72
2023/08/28 03:26:36;;;;;;;3.08;1.55;;;;;;;15.01;100.00;152459.50;10548856;28;20048;-73
2023/08/28 03:31:38;;;;;;;1.70;1.50;;;;;;;15.18;100.00;152500.91;10582896;28;20058;-73
2023/08/28 03:36:39;;;;;;;2.72;1.50;;;;;;;15.05;100.00;152469.84;10564982;28;20071;-73
2023/08/28 03:41:41;;;;;;;1.52;1.40;;;;;;;15.01;100.00;152458.19;10547812;28;20069;-73
2023/08/28 03:46:43;;;;;;;2.17;1.30;;;;;;;14.77;100.00;152397.28;10584018;28;20093;-73
2023/08/28 03:51:44;;;;;;;2.63;1.52;;;;;;;14.62;100.00;152361.03;10548152;28;20135;-73
2023/08/28 03:56:48;;;;;;;2.78;1.38;;;;;;;14.72;100.00;152384.34;10583611;28;20041;-73
2023/08/28 04:01:51;;;;;;;1.50;1.20;;;;;;;14.81;100.00;152408.94;10563935;28;20070;-73
2023/08/28 04:06:58;;;;;;;1.52;1.30;;;;;;;14.60;100.00;152354.53;10563616;28;20052;-73
2023/08/28 04:12:00;;;;;;;1.60;1.23;;;;;;;14.44;100.00;152314.38;10564082;28;20218;-72
2023/08/28 04:17:01;;;;;;;2.28;1.25;;;;;;;14.42;100.00;152309.19;10563547;28;20135;-73
2023/08/28 04:22:03;;;;;;;1.70;1.60;;;;;;;14.45;100.00;152315.66;10563481;28;20130;-73
2023/08/28 04:27:05;;;;;;;1.92;1.30;;;;;;;14.51;100.00;152331.25;10571926;28;20100;-73
2023/08/28 04:32:08;;;;;;;1.10;1.00;;;;;;;14.42;100.00;152307.88;10591219;28;20043;-73
2023/08/28 04:37:10;;;;;;;1.00;0.90;;;;;;;14.55;100.00;152342.91;10572583;28;20104;-73
2023/08/28 04:42:14;;;;;;;2.00;0.90;;;;;;;14.55;100.00;152341.59;10590459;28;20119;-73
2023/08/28 04:47:16;;;;;;;2.22;1.40;;;;;;;14.74;100.00;152389.50;10571041;28;20044;-74
2023/08/28 04:52:19;;;;;;;3.08;1.20;;;;;;;15.02;99.29;152460.78;10571062;28;20048;-73
2023/08/28 04:57:21;;;;;;;1.95;1.48;;;;;;;15.04;100.00;152465.94;10589936;28;20463;-73
2023/08/28 05:02:23;;;;;;;1.30;1.13;;;;;;;15.02;99.83;152462.06;10572472;28;20104;-74
2023/08/28 05:07:25;;;;;;;1.63;1.10;;;;;;;14.83;100.00;152414.16;10570722;28;20416;-73
2023/08/28 05:12:26;;;;;;;2.70;1.00;;;;;;;14.82;100.00;152410.25;10570371;28;20067;-73
2023/08/28 05:17:28;;;;;;;1.25;0.95;;;;;;;14.94;100.00;152440.03;10589453;28;20040;-73
2023/08/28 05:22:30;;;;;;;1.55;1.08;;;;;;;15.00;99.34;152455.56;10570792;28;20047;-73
2023/08/28 05:27:32;;;;;;;1.92;1.08;;;;;;;14.89;100.00;152428.38;10552914;28;20051;-74
2023/08/28 05:32:33;;;;;;;1.83;0.98;;;;;;;14.80;100.00;152405.06;10570058;28;20058;-74
2023/08/28 05:37:35;;;;;;;2.28;0.90;;;;;;;14.90;99.71;152430.97;10569963;28;20465;-72
2023/08/28 05:42:37;;;;;;;1.38;0.88;;;;;;;15.41;91.02;152559.25;10569002;28;20050;-73
2023/08/28 05:47:40;;;;;;;1.00;0.80;;;;;;;15.46;94.71;152572.22;10587099;28;20454;-73
2023/08/28 05:52:43;;;;;;;1.30;0.98;;;;;;;15.06;96.53;152472.44;10568835;28;20047;-73
2023/08/28 05:57:44;;;;;;;1.25;0.90;;;;;;;15.03;97.87;152464.66;10569233;28;20108;-73
2023/08/28 06:02:46;;;;;;;1.33;0.80;;;;;;;15.29;92.10;152530.72;10568671;28;20130;-73
2023/08/28 06:07:48;;;;;;;2.38;0.90;;;;;;;15.18;95.19;152500.91;10568097;28;20069;-73
2023/08/28 06:12:50;;;;;;;1.40;0.90;;;;;;;15.12;97.38;152486.66;10586666;28;20043;-73
2023/08/28 06:17:53;;;;;;;1.80;0.90;;;;;;;15.27;96.29;152524.22;10567457;28;20052;-74
2023/08/28 06:22:56;;;;;;;1.17;0.85;;;;;;;15.25;96.35;152520.34;10585324;28;20101;-73
2023/08/28 06:27:58;;;;;;;1.70;1.17;;;;;;;15.23;98.35;152515.19;10567032;28;20044;-74
2023/08/28 06:33:02;;;;;;;6.00;1.75;;;;;;;15.44;89.66;152567.00;10566867;28;20063;-73
2023/08/28 06:38:04;;;;;;;2.15;1.05;;;;;;;15.89;84.31;152682.38;10585894;28;20063;-73
2023/08/28 06:43:06;;;;;;;0.90;0.70;;;;;;;15.80;84.65;152660.34;10586642;28;20100;-73
2023/08/28 06:48:08;;;;;;;2.45;0.75;;;;;;;15.93;79.55;152692.75;10584081;28;20043;-73
2023/08/28 06:53:10;;;;;;;1.27;0.60;;;;;;;15.87;79.36;152677.22;10566386;28;20123;-73
2023/08/28 06:58:12;;;;;;;1.00;0.90;;;;;;;15.68;88.24;152627.97;10566475;28;20036;-73
2023/08/28 07:03:14;;;;;;;1.45;0.63;;;;;;;15.70;86.05;152633.16;10584135;28;20039;-73
2023/08/28 07:08:16;;;;;;;1.70;0.90;;;;;;;15.67;92.05;152625.34;10583814;28;20390;-73
2023/08/28 07:13:18;;;;;;;1.08;0.70;;;;;;;16.05;84.53;152722.56;10566035;28;20051;-73
2023/08/28 07:18:19;;;;;;;1.92;1.05;;;;;;;15.87;82.81;152678.50;10584761;28;20082;-73
2023/08/28 07:23:23;;;;;;;1.48;0.70;;;;;;;15.53;84.05;152590.31;10566521;28;20079;-73
2023/08/28 07:28:24;;;;;;;1.25;0.85;;;;;;;15.51;90.23;152586.44;10584485;28;20407;-73
2023/08/28 07:33:26;;;;;;;1.98;0.90;;;;;;;15.49;90.23;152579.94;10584175;28;20539;-73
2023/08/28 07:38:28;;;;;;;2.45;0.75;;;;;;;15.48;88.44;152578.66;10584718;28;20404;-73
2023/08/28 07:43:30;;;;;;;1.17;0.90;;;;;;;15.62;90.69;152613.63;10565335;28;20131;-73
2023/08/28 07:48:32;;;;;;;2.25;1.30;;;;;;;15.81;92.27;152662.97;10583373;28;20047;-73
2023/08/28 07:53:34;;;;;;;2.08;1.00;;;;;;;15.96;87.59;152699.25;10583768;28;20169;-73
2023/08/28 07:58:36;;;;;;;1.23;0.90;;;;;;;16.04;86.31;152720.00;10564371;28;20120;-73
2023/08/28 08:03:38;;;;;;;2.00;0.98;;;;;;;16.02;85.67;152716.06;10582921;28;20043;-74
2023/08/28 08:08:40;;;;;;;2.85;0.88;;;;;;;16.14;85.19;152745.91;10582743;28;20061;-73
2023/08/28 08:13:41;;;;;;;1.38;1.00;;;;;;;16.20;84.71;152761.44;10582775;28;20052;-73
2023/08/28 08:18:43;;;;;;;2.95;1.30;;;;;;;16.45;83.92;152823.72;10582656;28;20087;-73
2023/08/28 08:23:45;;;;;;;2.55;1.05;;;;;;;16.33;84.83;152793.88;10582772;28;20046;-73
2023/08/28 08:28:47;;;;;;;1.90;1.00;;;;;;;16.36;84.40;152801.66;10582107;28;20035;-73
2023/08/28 08:33:50;;;;;;;1.55;1.20;;;;;;;16.89;81.03;152936.59;10582686;28;20043;-73
2023/08/28 08:38:51;;;;;;;1.85;1.10;;;;;;;16.95;82.17;152952.13;10582146;28;20050;-73
2023/08/28 08:43:53;;;;;;;2.65;1.20;;;;;;;16.78;80.48;152909.38;10582323;28;20048;-73
2023/08/28 08:48:59;;;;;;;2.15;1.05;;;;;;;16.84;81.81;152924.91;10582197;28;20044;-73
2023/08/28 08:54:04;;;;;;;1.95;1.20;;;;;;;17.04;81.75;152974.19;10582090;28;20043;-73
2023/08/28 08:59:06;;;;;;;2.55;1.40;;;;;;;17.44;76.14;153076.69;10582062;28;20490;-73
2023/08/28 09:04:08;;;;;;;2.10;1.25;;;;;;;17.31;76.92;153042.94;10582453;28;20382;-73
2023/08/28 09:09:11;;;;;;;1.52;1.20;;;;;;;17.02;81.75;152970.31;10581779;28;20036;-74
2023/08/28 09:14:13;;;;;;;1.40;1.30;;;;;;;17.06;80.79;152980.69;10583143;28;20477;-74
2023/08/28 09:19:15;;;;;;;2.08;1.65;;;;;;;16.98;82.09;152958.66;10589548;28;20036;-74
2023/08/28 09:24:23;;;;;;;1.80;1.63;;;;;;;16.83;82.84;152921.03;10588911;28;20126;-73
2023/08/28 09:29:25;;;;;;;3.15;1.90;;;;;;;16.59;81.83;152860.00;10589472;28;20114;-73
2023/08/28 09:34:37;;;;;;;1.80;1.50;;;;;;;16.51;83.57;152839.25;10588920;28;20145;-73
2023/08/28 09:39:53;;;;;;;3.53;1.65;;;;;;;16.50;84.96;152837.97;10588547;28;20040;-73
2023/08/28 09:44:55;;;;;;;;;;;;;;;16.28;82.71;152782.19;10592458;28;20044;-74
2023/08/28 09:49:57;;;;;;;3.10;1.60;;;;;;;16.63;84.55;152870.38;10572749;28;20369;-74
2023/08/28 09:55:07;;;;;;;1.90;1.75;;;;;;;16.69;82.63;152885.97;10572827;28;20066;-74
2023/08/28 10:00:11;;;;;;;2.30;1.63;;;;;;;16.70;83.51;152887.28;10591269;28;20118;-74
2023/08/28 10:05:15;;;;;;;2.05;1.58;;;;;;;16.98;84.62;152958.66;10572570;28;20047;-74
2023/08/28 10:10:18;;;;;;;2.40;1.30;;;;;;;16.77;86.31;152905.44;10591205;28;20088;-74
2023/08/28 10:15:20;;;;;;;2.60;1.70;;;;;;;16.48;86.82;152832.78;10590368;28;20444;-74
2023/08/28 10:20:26;;;;;;;1.67;1.58;;;;;;;16.53;88.89;152845.75;10571300;28;20089;-74
2023/08/28 10:25:29;;;;;;;3.67;2.47;;;;;;;16.31;95.21;152790.00;10590833;28;20071;-74
2023/08/28 10:30:34;;;;;;;3.15;2.85;;;;;;;16.14;98.20;152745.91;10590022;28;20035;-74
2023/08/28 10:35:37;;;;;;;2.95;2.75;;;;;;;16.18;98.28;152755.00;10590605;28;20052;-73
2023/08/28 10:40:39;;;;;;;3.13;2.83;;;;;;;16.17;99.90;152753.72;10588872;28;20032;-73
2023/08/28 10:45:43;;;;;;;4.38;3.88;;;;;;;16.13;100.00;152744.63;10590048;28;20039;-73
2023/08/28 10:50:45;;;;;;;3.30;3.00;;;;;;;16.25;100.00;152774.47;10571048;28;20051;-74
2023/08/28 10:55:59;;;;;;;3.97;2.85;;;;;;;16.20;100.00;152761.44;10590046;28;20051;-73
2023/08/28 11:01:17;;;;;;;2.60;2.25;;;;;;;15.97;100.00;152703.13;10589129;28;20036;-74
2023/08/28 11:06:43;;;;;;;3.65;3.13;;;;;;;15.82;100.00;152665.53;10570816;28;20119;-73
2023/08/28 11:11:46;;;;;;;2.47;2.17;;;;;;;15.83;100.00;152666.84;10553729;28;20047;-75
2023/08/28 11:16:48;;;;;;;5.45;4.03;;;;;;;16.25;100.00;152774.47;10570771;28;20096;-73
2023/08/28 11:21:58;;;;;;;4.35;3.95;;;;;;;16.22;100.00;152765.38;10588723;28;20535;-72
2023/08/28 11:27:00;;;;;;;5.93;4.03;;;;;;;16.11;100.00;152739.47;10588808;28;20378;-74
2023/08/28 11:32:02;;;;;;;4.63;3.90;;;;;;;15.89;100.00;152682.38;10588870;28;20044;-74
2023/08/28 11:37:04;;;;;;;5.13;4.10;;;;;;;15.73;100.00;152642.22;10588399;28;20043;-75
2023/08/28 11:42:12;;;;;;;5.03;4.13;;;;;;;15.65;100.00;152621.47;10587947;28;20054;-74
2023/08/28 11:47:14;;;;;;;6.50;3.92;;;;;;;15.47;100.00;152574.78;10588495;28;20036;-74
2023/08/28 11:52:16;;;;;;;3.50;3.17;;;;;;;15.53;100.00;152591.59;10587206;28;20077;-73
2023/08/28 11:57:19;;;;;;;5.25;4.95;;;;;;;15.73;100.00;152642.22;10587823;28;20131;-74
2023/08/28 12:02:21;;;;;;;6.63;6.18;;;;;;;15.75;100.00;152647.38;10585623;28;20035;-73
2023/08/28 12:07:25;;;;;;;5.82;5.50;;;;;;;15.70;100.00;152634.44;10584701;28;20044;-73
2023/08/28 12:12:27;;;;;;;7.43;7.03;;;;;;;15.66;100.00;152622.78;10584639;28;20045;-73
2023/08/28 12:17:31;;;;;;;7.63;7.20;;;;;;;15.62;100.00;152613.63;10585063;28;20126;-74
2023/08/28 12:22:42;;;;;;;6.97;6.57;;;;;;;15.58;100.00;152604.59;10583319;28;20054;-74
2023/08/28 12:27:43;;;;;;;9.65;9.05;;;;;;;15.85;100.00;152673.34;10585270;28;20358;-74
2023/08/28 12:32:52;;;;;;;9.15;8.55;;;;;;;15.83;100.00;152666.84;10566611;28;20405;-74
2023/08/28 12:37:54;;;;;;;10.95;10.35;;;;;;;15.80;100.00;152659.03;10584183;28;20077;-73
2023/08/28 12:42:59;;;;;;;9.98;9.27;;;;;;;15.91;100.00;152686.28;10582647;28;20481;-73
2023/08/28 12:48:02;;;;;;;10.45;9.75;;;;;;;15.71;100.00;152637.00;10589127;28;20050;-73
2023/08/28 12:53:04;;;;;;;8.70;8.20;;;;;;;15.55;100.00;152595.53;10590860;28;20040;-73
2023/08/28 12:58:07;;;;;;;8.60;7.90;;;;;;;15.65;100.00;152621.47;10591022;28;20550;-72
2023/08/28 13:03:09;;;;;;;7.32;6.90;;;;;;;15.75;100.00;152646.09;10591196;28;20439;-73
2023/08/28 13:08:10;;;;;;;7.63;7.00;;;;;;;15.55;100.00;152595.53;10590875;28;20118;-73
2023/08/28 13:13:13;;;;;;;4.53;4.13;;;;;;;15.78;100.00;152653.88;10590567;28;20051;-73
2023/08/28 13:18:14;;;;;;;5.13;4.82;;;;;;;15.83;100.00;152668.13;10590471;28;20050;-73
2023/08/28 13:23:19;;;;;;;5.88;5.47;;;;;;;15.99;100.00;152708.34;10570923;28;20050;-76
2023/08/28 13:28:22;;;;;;;8.02;7.50;;;;;;;16.11;100.00;152739.47;10588807;28;20114;-76
2023/08/28 13:33:25;;;;;;;5.75;5.28;;;;;;;16.08;100.00;152730.38;10590174;28;20467;-75
2023/08/28 13:38:27;;;;;;;6.40;6.00;;;;;;;16.13;100.00;152744.63;10589498;28;20052;-76
2023/08/28 13:43:29;;;;;;;6.28;5.85;;;;;;;16.06;100.00;152725.16;10589417;28;20505;-76
2023/08/28 13:48:31;;;;;;;7.05;6.55;;;;;;;16.24;100.00;152770.53;10588135;28;20046;-77
2023/08/28 13:53:33;;;;;;;3.95;3.65;;;;;;;16.27;100.00;152778.31;10588648;28;20047;-77
2023/08/28 13:58:35;;;;;;;2.83;2.63;;;;;;;16.33;100.00;152793.88;10570443;28;20074;-77
2023/08/28 14:03:36;;;;;;;4.00;3.70;;;;;;;15.94;100.00;152695.38;10587581;28;20044;-76
2023/08/28 14:08:38;;;;;;;4.55;4.25;;;;;;;15.86;100.00;152675.94;10587620;28;20040;-77
2023/08/28 14:13:41;;;;;;;2.50;2.40;;;;;;;15.86;100.00;152675.94;10569442;28;20086;-77
2023/08/28 14:18:42;;;;;;;2.88;2.67;;;;;;;15.62;100.00;152614.94;10586437;28;20477;-77
2023/08/28 14:23:44;;;;;;;2.22;2.05;;;;;;;15.62;100.00;152613.63;10587742;28;20130;-76
2023/08/28 14:28:46;;;;;;;1.63;1.52;;;;;;;15.70;100.00;152633.16;10587865;28;20128;-75
2023/08/28 14:33:47;;;;;;;2.30;2.15;;;;;;;15.87;99.13;152678.50;10586906;28;20075;-76
2023/08/28 14:38:49;;;;;;;1.73;1.63;;;;;;;15.84;94.76;152669.41;10587563;28;20044;-76
2023/08/28 14:43:51;;;;;;;3.22;2.17;;;;;;;15.81;100.00;152661.69;10586530;28;20127;-71
2023/08/28 14:48:53;;;;;;;2.58;2.38;;;;;;;15.96;97.94;152700.53;10585048;28;20050;-72
2023/08/28 14:53:57;;;;;;;3.90;3.60;;;;;;;15.85;100.00;152672.06;10585520;28;20044;-72
2023/08/28 14:58:58;;;;;;;3.08;2.85;;;;;;;15.94;100.00;152695.38;10585665;28;20458;-72
2023/08/28 15:04:00;;;;;;;3.10;2.90;;;;;;;15.67;100.00;152625.34;10585782;28;20554;-72
2023/08/28 15:09:02;;;;;;;2.25;2.05;;;;;;;15.74;99.97;152644.81;10584101;28;20059;-72
2023/08/28 15:14:04;;;;;;;2.13;2.03;;;;;;;15.72;99.80;152638.34;10585028;28;20442;-72
2023/08/28 15:19:06;;;;;;;1.83;1.73;;;;;;;15.43;96.95;152565.72;10566042;28;20561;-71
2023/08/28 15:24:08;;;;;;;1.92;1.80;;;;;;;15.54;96.76;152594.25;10584003;28;20036;-71
2023/08/28 15:29:10;;;;;;;1.90;1.80;;;;;;;15.29;99.53;152530.72;10584012;28;20093;-72
2023/08/28 15:34:11;;;;;;;2.38;2.28;;;;;;;15.23;100.00;152513.84;10565731;28;20043;-72
2023/08/28 15:39:14;;;;;;;2.28;2.17;;;;;;;15.11;100.00;152485.38;10584265;28;20442;-72
2023/08/28 15:44:16;;;;;;;3.70;3.50;;;;;;;15.08;100.00;152477.59;10583276;28;20039;-71
2023/08/28 15:49:18;;;;;;;2.90;2.70;;;;;;;15.18;99.84;152502.19;10583734;28;20180;-72
2023/08/28 15:54:19;;;;;;;3.72;3.42;;;;;;;15.13;100.00;152489.25;10583823;28;20043;-72
2023/08/28 15:59:21;;;;;;;3.38;3.17;;;;;;;15.14;100.00;152493.16;10564840;28;20489;-71
2023/08/28 16:04:24;;;;;;;3.53;3.33;;;;;;;15.03;100.00;152464.66;10583878;28;20142;-72
2023/08/28 16:09:25;;;;;;;3.83;3.63;;;;;;;15.01;100.00;152458.19;10582455;28;20126;-72
2023/08/28 16:14:27;;;;;;;3.97;3.67;;;;;;;14.93;100.00;152437.47;10583788;28;20059;-72
2023/08/28 16:19:29;;;;;;;3.58;3.28;;;;;;;14.94;100.00;152441.34;10582288;28;20195;-73
2023/08/28 16:24:30;;;;;;;3.20;3.00;;;;;;;15.03;100.00;152463.34;10564311;28;20051;-73
2023/08/28 16:29:33;;;;;;;4.07;3.70;;;;;;;14.98;100.00;152451.72;10581917;28;20401;-72
2023/08/28 16:34:35;;;;;;;4.68;4.38;;;;;;;14.97;100.00;152447.84;10582684;28;20040;-72
2023/08/28 16:39:37;;;;;;;4.90;4.60;;;;;;;14.96;100.00;152446.50;10564886;28;20050;-73
2023/08/28 16:44:39;;;;;;;5.38;5.07;;;;;;;14.98;100.00;152451.72;10583173;28;20497;-72
2023/08/28 16:49:42;;;;;;;4.18;3.88;;;;;;;15.09;100.00;152480.19;10582824;28;20546;-73
2023/08/28 16:54:44;;;;;;;3.75;3.55;;;;;;;14.85;100.00;152419.31;10565241;28;20052;-73
2023/08/28 16:59:46;;;;;;;3.20;3.00;;;;;;;14.84;100.00;152416.75;10564310;28;20048;-73
2023/08/28 17:04:48;;;;;;;2.42;2.33;;;;;;;14.92;100.00;152434.84;10582022;28;20120;-72
2023/08/28 17:09:49;;;;;;;2.80;2.60;;;;;;;14.56;100.00;152344.19;10581794;28;20131;-73
2023/08/28 17:14:51;;;;;;;2.60;2.40;;;;;;;14.48;100.00;152324.78;10582671;28;20114;-72
2023/08/28 17:19:53;;;;;;;2.30;2.20;;;;;;;14.32;100.00;152283.28;10564210;28;20085;-72
2023/08/28 17:24:55;;;;;;;2.00;1.90;;;;;;;14.42;100.00;152307.88;10565103;28;20071;-72
2023/08/28 17:29:57;;;;;;;2.30;2.20;;;;;;;14.26;100.00;152267.78;10581095;28;20039;-72
2023/08/28 17:34:58;;;;;;;1.90;1.80;;;;;;;14.53;100.00;152336.44;10588025;28;20082;-71
2023/08/28 17:40:00;;;;;;;1.52;1.33;;;;;;;14.44;100.00;152314.38;10589464;28;20040;-72
2023/08/28 17:45:06;;;;;;;1.50;1.30;;;;;;;14.22;100.00;152258.69;10589177;28;20104;-72
2023/08/28 17:50:08;;;;;;;1.63;1.00;;;;;;;14.26;100.00;152267.78;10589080;28;20119;-71
2023/08/28 17:55:09;;;;;;;0.70;0.70;;;;;;;14.08;100.00;152222.47;10590316;28;20103;-73
2023/08/28 18:00:12;;;;;;;0.93;0.82;;;;;;;13.92;100.00;152182.31;10569653;28;20044;-72
2023/08/28 18:05:15;;;;;;;1.45;1.10;;;;;;;13.97;99.82;152195.25;10588559;28;20051;-72
2023/08/28 18:10:17;;;;;;;1.00;0.90;;;;;;;13.74;100.00;152137.03;10588024;28;20074;-72
2023/08/28 18:15:19;;;;;;;2.13;1.10;;;;;;;13.58;100.00;152095.59;10588431;28;20071;-73
2023/08/28 18:20:21;;;;;;;1.58;1.48;;;;;;;13.70;100.00;152125.38;10571498;28;20036;-72
2023/08/28 18:25:24;;;;;;;1.85;1.42;;;;;;;13.76;100.00;152140.88;10588985;28;20074;-73
2023/08/28 18:30:26;;;;;;;1.40;1.30;;;;;;;13.83;100.00;152159.03;10588079;28;20040;-72
2023/08/28 18:35:28;;;;;;;1.60;1.50;;;;;;;13.84;100.00;152162.91;10589425;28;20086;-72
2023/08/28 18:40:29;;;;;;;1.30;1.20;;;;;;;13.80;100.00;152151.25;10587671;28;20036;-72
2023/08/28 18:45:31;;;;;;;1.17;1.08;;;;;;;13.87;100.00;152169.38;10568592;28;20093;-72
2023/08/28 18:50:33;;;;;;;1.20;1.10;;;;;;;13.58;100.00;152095.59;10586325;28;20557;-72
2023/08/28 18:55:36;;;;;;;0.70;0.70;;;;;;;13.68;100.00;152120.16;10586102;28;20043;-71
2023/08/28 19:00:37;;;;;;;0.77;0.70;;;;;;;13.59;100.00;152099.50;10586983;28;20040;-71
2023/08/28 19:05:39;;;;;;;1.13;0.63;;;;;;;13.40;100.00;152050.31;10586174;28;20438;-72
2023/08/28 19:10:41;;;;;;;1.95;0.93;;;;;;;13.44;100.00;152060.66;10567894;28;20063;-72
2023/08/28 19:15:43;;;;;;;2.35;0.90;;;;;;;13.32;100.00;152030.88;10550561;28;20040;-72
2023/08/28 19:20:45;;;;;;;1.30;1.20;;;;;;;13.07;100.00;151966.19;10585054;28;20382;-72
2023/08/28 19:26:02;;;;;;;1.90;1.20;;;;;;;13.03;100.00;151955.84;10585402;28;20545;-72
2023/08/28 19:31:04;;;;;;;0.70;0.70;;;;;;;13.32;100.00;152029.59;10585067;28;20093;-74
2023/08/28 19:36:07;;;;;;;1.27;0.80;;;;;;;13.27;100.00;152017.97;10586964;28;20550;-72
2023/08/28 19:41:08;;;;;;;1.95;1.13;;;;;;;13.29;100.00;152021.88;10584462;28;20043;-72
2023/08/28 19:46:10;;;;;;;1.15;0.98;;;;;;;13.06;100.00;151963.63;10566972;28;20094;-71
2023/08/28 19:51:12;;;;;;;1.52;1.23;;;;;;;13.24;100.00;152010.22;10585294;28;20059;-72
2023/08/28 19:56:14;;;;;;;1.30;1.20;;;;;;;13.04;100.00;151959.69;10585325;28;20489;-72
2023/08/28 20:01:16;;;;;;;1.45;1.10;;;;;;;12.92;100.00;151928.66;10584044;28;20043;-73
2023/08/28 20:06:19;;;;;;;1.27;1.10;;;;;;;12.98;100.00;151944.19;10565747;28;20066;-72
2023/08/28 20:11:21;;;;;;;1.63;1.52;;;;;;;13.00;100.00;151948.06;10584114;28;20119;-72
2023/08/28 20:16:24;;;;;;;1.10;1.00;;;;;;;13.06;100.00;151963.63;10584389;28;20048;-73
2023/08/28 20:21:28;;;;;;;1.38;1.10;;;;;;;13.02;100.00;151954.56;10582690;28;20410;-72
2023/08/28 20:26:31;;;;;;;1.73;1.30;;;;;;;12.85;100.00;151910.56;10564981;28;20052;-72
2023/08/28 20:31:36;;;;;;;1.90;1.10;;;;;;;12.75;100.00;151884.66;10565009;28;20089;-71
2023/08/28 20:36:41;;;;;;;1.30;1.15;;;;;;;12.88;100.00;151918.28;10565379;28;20078;-72
2023/08/28 20:41:43;;;;;;;1.67;1.27;;;;;;;12.81;100.00;151901.50;10584028;28;20051;-72
2023/08/28 20:46:44;;;;;;;1.40;1.30;;;;;;;12.68;100.00;151867.88;10582581;28;20044;-73
2023/08/28 20:51:46;;;;;;;1.15;0.95;;;;;;;13.04;100.00;151959.69;10582972;28;20122;-72
2023/08/28 20:56:48;;;;;;;1.38;1.27;;;;;;;12.90;100.00;151923.50;10563753;28;20520;-71
2023/08/28 21:01:53;;;;;;;1.42;1.33;;;;;;;12.63;100.00;151856.25;10582476;28;20070;-72
2023/08/28 21:06:55;;;;;;;1.42;1.30;;;;;;;12.84;100.00;151909.28;10567371;28;20040;-71
2023/08/28 21:11:57;;;;;;;1.30;1.17;;;;;;;12.84;100.00;151908.00;10590581;28;20118;-72
2023/08/28 21:16:59;;;;;;;2.53;1.27;;;;;;;12.78;100.00;151892.44;10589901;28;20404;-73
2023/08/28 21:22:02;;;;;;;2.50;1.60;;;;;;;12.71;100.00;151875.66;10590415;28;20061;-72
2023/08/28 21:27:04;;;;;;;1.65;1.20;;;;;;;12.69;100.00;151869.16;10589490;28;20067;-72
2023/08/28 21:32:07;;;;;;;1.60;1.17;;;;;;;13.11;100.00;151976.53;10572007;28;20127;-71
2023/08/28 21:37:08;;;;;;;1.65;1.55;;;;;;;12.78;100.00;151893.72;10589047;28;20088;-72
2023/08/28 21:42:10;;;;;;;2.03;1.92;;;;;;;12.60;100.00;151848.47;10589505;28;20040;-71
2023/08/28 21:47:12;;;;;;;3.22;2.28;;;;;;;12.55;100.00;151834.25;10588884;28;20483;-72
2023/08/28 21:52:32;;;;;;;2.17;1.92;;;;;;;12.70;100.00;151871.75;10588119;28;20044;-71
2023/08/28 21:57:52;;;;;;;1.65;1.55;;;;;;;12.99;100.00;151945.50;10588072;28;20047;-71
2023/08/28 22:03:14;;;;;;;2.42;2.13;;;;;;;13.04;100.00;151958.41;10588024;28;20092;-71
2023/08/28 22:08:34;;;;;;;2.80;2.60;;;;;;;12.69;100.00;151870.44;10589336;28;20126;-71
2023/08/28 22:13:56;;;;;;;2.67;2.47;;;;;;;13.01;100.00;151950.63;10588236;28;20427;-71
2023/08/28 22:18:57;;;;;;;3.08;2.08;;;;;;;12.71;100.00;151875.66;10587142;28;20039;-71
2023/08/28 22:23:59;;;;;;;3.50;3.20;;;;;;;13.10;100.00;151973.91;10567034;28;20497;-71
2023/08/28 22:29:01;;;;;;;3.72;3.42;;;;;;;12.82;100.00;151904.06;10585279;28;20050;-71
2023/08/28 22:34:03;;;;;;;4.60;4.30;;;;;;;12.78;100.00;151893.72;10584283;28;20459;-72
2023/08/28 22:39:05;;;;;;;4.10;3.83;;;;;;;12.84;100.00;151908.00;10585333;28;20122;-72
2023/08/28 22:44:06;;;;;;;5.40;4.90;;;;;;;12.78;100.00;151892.44;10584524;28;20035;-72
2023/08/28 22:49:08;;;;;;;6.10;5.63;;;;;;;12.73;100.00;151879.50;10584685;28;20464;-71
2023/08/28 22:54:10;;;;;;;4.57;4.22;;;;;;;12.77;100.00;151889.88;10584967;28;20060;-71
2023/08/28 22:59:12;;;;;;;6.50;6.10;;;;;;;12.63;100.00;151854.94;10583407;28;20097;-72
2023/08/28 23:04:14;;;;;;;5.00;4.70;;;;;;;12.61;100.00;151849.75;10574771;28;20047;-73